Time;durP1;ratioP1;P1;durP2;ratioP2;P2;SDS_P1;SDS_P2;PMS_P1;PMS_P2;Temp;Humidity;BMP_temperature;BMP_pressure;BME280_temperature;BME280_humidity;BME280_pressure;Samples;Min_cycle;Max_cycle;Signal;HPM_P1;HPM_P2
2022/09/08 00:00:38;;;;;;;14.95;11.60;;;17.00;99.90;;;;;;5035205;28;20064;-67
2022/09/08 00:03:06;;;;;;;14.50;12.52;;;17.10;99.90;;;;;;5035218;28;20045;-67
2022/09/08 00:05:38;;;;;;;14.20;12.80;;;16.90;99.90;;;;;;5017665;28;20048;-67
2022/09/08 00:08:04;;;;;;;16.00;12.73;;;17.00;99.90;;;;;;5017505;28;20041;-67
2022/09/08 00:10:30;;;;;;;14.63;13.18;;;16.80;99.90;;;;;;5035465;28;20042;-67
2022/09/08 00:12:55;;;;;;;18.23;15.15;;;16.80;99.90;;;;;;5035242;28;20055;-67
2022/09/08 00:15:21;;;;;;;15.35;13.77;;;16.90;99.90;;;;;;5017404;28;20534;-67
2022/09/08 00:17:47;;;;;;;15.90;14.20;;;16.90;99.90;;;;;;5035119;28;20113;-67
2022/09/08 00:20:13;;;;;;;18.02;15.40;;;16.90;99.90;;;;;;5035223;28;20033;-67
2022/09/08 00:22:39;;;;;;;16.75;14.40;;;16.80;99.90;;;;;;5034570;28;20042;-67
2022/09/08 00:25:05;;;;;;;19.40;15.45;;;16.70;99.90;;;;;;5016738;28;20037;-67
2022/09/08 00:27:31;;;;;;;20.35;15.57;;;17.90;99.90;;;;;;5034909;28;20488;-67
2022/09/08 00:29:56;;;;;;;15.10;13.43;;;16.90;99.90;;;;;;5017089;28;20037;-67
2022/09/08 00:32:23;;;;;;;19.60;15.77;;;16.80;99.90;;;;;;5035011;28;20034;-67
2022/09/08 00:34:50;;;;;;;19.02;16.67;;;16.60;99.90;;;;;;5034934;28;20041;-67
2022/09/08 00:37:16;;;;;;;19.58;16.55;;;16.70;99.90;;;;;;5035030;28;20087;-67
2022/09/08 00:39:42;;;;;;;20.92;18.58;;;16.90;99.90;;;;;;5034847;28;20045;-67
2022/09/08 00:42:07;;;;;;;20.42;18.17;;;16.90;99.90;;;;;;5034546;28;20052;-67
2022/09/08 00:44:49;;;;;;;22.55;19.85;;;16.70;99.90;;;;;;5034606;28;20033;-67
2022/09/08 00:47:57;;;;;;;22.65;19.30;;;16.70;99.90;;;;;;5034860;28;20076;-67
2022/09/08 00:50:26;;;;;;;23.00;19.42;;;16.60;99.90;;;;;;4952033;29;20039;-67
2022/09/08 00:52:59;;;;;;;25.20;19.85;;;17.60;99.90;;;;;;5023994;28;20574;-67
2022/09/08 00:55:25;;;;;;;24.17;19.85;;;16.80;99.90;;;;;;5034483;28;20042;-67
2022/09/08 00:57:51;;;;;;;21.50;18.60;;;16.60;99.90;;;;;;5034498;28;20491;-67
2022/09/08 01:00:17;;;;;;;23.80;20.42;;;16.70;99.90;;;;;;5015337;28;20033;-67
2022/09/08 01:02:46;;;;;;;24.85;19.08;;;16.70;99.90;;;;;;5016351;28;20052;-67
2022/09/08 01:05:15;;;;;;;22.73;20.33;;;16.60;99.90;;;;;;5016309;28;20046;-67
2022/09/08 01:14:04;;;;;;;27.45;22.50;;;16.70;99.90;;;;;;5004222;28;20084;-67
2022/09/08 01:16:39;;;;;;;25.63;21.92;;;16.60;99.90;;;;;;5016346;28;20081;-67
2022/09/08 01:19:09;;;;;;;25.00;22.33;;;16.70;99.90;;;;;;5021291;28;20076;-67
2022/09/08 01:21:50;;;;;;;29.60;25.83;;;16.60;99.90;;;;;;5033965;28;20124;-67
2022/09/08 01:24:31;;;;;;;30.45;25.92;;;16.60;99.90;;;;;;5016150;28;20045;-67
2022/09/08 01:27:21;;;;;;;29.95;23.48;;;16.70;99.90;;;;;;5016198;28;20041;-67
2022/09/08 01:29:48;;;;;;;29.30;26.10;;;16.70;99.90;;;;;;5016386;28;20049;-67
2022/09/08 01:32:14;;;;;;;33.47;26.05;;;16.90;99.90;;;;;;5033595;28;20037;-67
2022/09/08 01:34:42;;;;;;;31.55;27.05;;;17.10;99.90;;;;;;5015644;28;20061;-67
2022/09/08 01:37:08;;;;;;;34.63;28.80;;;17.10;99.90;;;;;;5015935;28;20120;-67
2022/09/08 01:39:34;;;;;;;34.60;29.08;;;17.00;99.90;;;;;;5009328;28;20128;-67
2022/09/08 01:42:00;;;;;;;33.80;28.75;;;16.80;99.90;;;;;;5026682;28;20084;-67
2022/09/08 01:44:27;;;;;;;32.30;28.05;;;16.80;99.90;;;;;;5033505;28;20084;-67
2022/09/08 01:46:52;;;;;;;33.60;28.88;;;16.80;99.90;;;;;;5033502;28;20045;-67
2022/09/08 01:49:18;;;;;;;40.10;30.40;;;16.80;99.90;;;;;;5015619;28;20037;-67
2022/09/08 01:51:44;;;;;;;35.38;30.35;;;16.80;99.90;;;;;;5033358;28;20365;-67
2022/09/08 01:54:09;;;;;;;35.30;31.45;;;16.90;99.90;;;;;;5033593;28;20033;-67
2022/09/08 01:56:35;;;;;;;38.70;30.48;;;16.80;99.90;;;;;;5033463;28;20081;-67
2022/09/08 01:59:02;;;;;;;33.83;30.13;;;16.90;99.90;;;;;;5015573;28;20052;-67
2022/09/08 02:01:27;;;;;;;34.55;28.73;;;16.80;99.90;;;;;;5015176;28;20056;-67
2022/09/08 02:03:53;;;;;;;34.13;29.10;;;16.90;99.90;;;;;;5033282;28;20045;-67
2022/09/08 02:06:19;;;;;;;39.28;32.13;;;17.00;99.90;;;;;;5015396;28;20068;-67
2022/09/08 02:08:52;;;;;;;38.08;32.25;;;16.90;99.90;;;;;;5015441;28;20045;-67
2022/09/08 02:11:19;;;;;;;38.28;31.25;;;17.10;99.90;;;;;;5033003;28;20403;-67
2022/09/08 02:13:46;;;;;;;37.55;31.92;;;17.00;99.90;;;;;;5033214;28;20084;-67
2022/09/08 02:16:12;;;;;;;39.25;32.47;;;17.00;99.90;;;;;;5033023;28;20042;-67
2022/09/08 02:18:39;;;;;;;47.00;34.85;;;17.10;99.90;;;;;;5015292;28;20435;-67
2022/09/08 02:21:10;;;;;;;38.97;33.08;;;16.90;99.90;;;;;;5033252;28;20439;-67
2022/09/08 02:23:37;;;;;;;36.83;31.70;;;17.10;99.90;;;;;;5015473;28;20069;-67
2022/09/08 02:26:04;;;;;;;38.63;32.28;;;17.20;99.90;;;;;;5015552;28;20045;-67
2022/09/08 02:28:30;;;;;;;38.08;32.60;;;17.10;99.90;;;;;;5015709;28;20045;-67
2022/09/08 02:31:00;;;;;;;36.58;32.60;;;17.10;99.90;;;;;;5032832;28;20523;-67
2022/09/08 02:33:27;;;;;;;37.05;32.60;;;17.10;99.90;;;;;;5032750;28;20048;-67
2022/09/08 02:35:52;;;;;;;37.22;31.98;;;17.20;99.90;;;;;;5033014;28;20038;-67
2022/09/08 02:38:18;;;;;;;38.88;31.35;;;17.20;99.90;;;;;;5033055;28;20064;-67
2022/09/08 02:40:43;;;;;;;40.55;31.33;;;17.20;99.90;;;;;;5032550;28;20050;-67
2022/09/08 02:43:09;;;;;;;36.90;31.80;;;17.20;99.90;;;;;;5014954;28;20065;-67
2022/09/08 02:45:41;;;;;;;40.00;34.17;;;17.20;99.90;;;;;;5015085;28;20034;-67
2022/09/08 02:48:07;;;;;;;36.50;32.13;;;17.10;99.90;;;;;;5036398;28;20044;-67
2022/09/08 02:50:33;;;;;;;39.20;33.17;;;17.10;99.90;;;;;;5037091;28;20192;-67
2022/09/08 02:52:59;;;;;;;41.47;34.35;;;17.20;99.90;;;;;;5036703;28;20507;-67
2022/09/08 02:55:25;;;;;;;40.63;32.15;;;17.50;99.90;;;;;;5018875;28;20107;-67
2022/09/08 02:57:51;;;;;;;42.70;35.38;;;17.30;99.90;;;;;;5036716;28;20041;-67
2022/09/08 03:00:18;;;;;;;37.50;31.77;;;17.20;99.90;;;;;;5036575;28;20045;-67
2022/09/08 03:02:44;;;;;;;38.63;31.65;;;17.20;99.90;;;;;;5036223;28;20064;-67
2022/09/08 03:05:10;;;;;;;39.17;33.42;;;17.10;99.90;;;;;;5036626;28;20108;-67
2022/09/08 03:07:36;;;;;;;37.90;31.77;;;17.00;99.90;;;;;;5036503;28;20037;-67
2022/09/08 03:10:04;;;;;;;38.70;32.85;;;17.30;99.90;;;;;;5018850;28;20041;-67
2022/09/08 03:12:30;;;;;;;38.83;33.17;;;17.20;99.90;;;;;;5018850;28;20075;-67
2022/09/08 03:14:56;;;;;;;37.15;32.53;;;17.30;99.90;;;;;;5036188;28;20045;-67
2022/09/08 03:17:21;;;;;;;39.75;32.97;;;17.30;99.90;;;;;;5018626;28;20045;-67
2022/09/08 03:19:47;;;;;;;39.30;31.58;;;17.30;99.90;;;;;;5018404;28;20052;-67
2022/09/08 03:22:13;;;;;;;35.17;30.80;;;17.30;99.90;;;;;;5036366;28;20042;-67
2022/09/08 03:24:38;;;;;;;40.08;32.65;;;17.30;99.90;;;;;;5036207;28;20045;-67
2022/09/08 03:27:04;;;;;;;38.53;32.25;;;17.40;99.90;;;;;;5036178;28;20041;-67
2022/09/08 03:29:30;;;;;;;38.30;31.95;;;17.30;99.90;;;;;;5036061;28;20109;-67
2022/09/08 03:31:56;;;;;;;34.97;31.17;;;17.30;99.90;;;;;;5018169;28;20116;-67
2022/09/08 03:34:22;;;;;;;42.38;32.88;;;17.20;99.90;;;;;;5018271;28;20062;-67
2022/09/08 03:36:47;;;;;;;37.20;32.55;;;17.30;99.90;;;;;;5036042;28;20434;-67
2022/09/08 03:39:13;;;;;;;36.67;32.70;;;17.60;99.90;;;;;;5036113;28;20430;-67
2022/09/08 03:41:38;;;;;;;36.72;31.92;;;17.50;99.90;;;;;;5035865;28;20399;-67
2022/09/08 03:44:04;;;;;;;37.17;33.15;;;17.40;99.90;;;;;;5035754;28;20127;-67
2022/09/08 03:46:30;;;;;;;39.80;32.60;;;17.70;99.90;;;;;;5035687;28;20042;-67
2022/09/08 03:48:55;;;;;;;44.55;37.58;;;17.60;99.90;;;;;;5035702;28;20041;-67
2022/09/08 03:51:25;;;;;;;42.90;38.22;;;17.90;99.90;;;;;;5035666;28;20419;-67
2022/09/08 03:54:46;;;;;;;39.75;35.67;;;17.90;99.90;;;;;;5035576;28;20072;-67
2022/09/08 03:56:41;;;;;;;42.80;38.17;;;17.70;99.90;;;;;;5006943;28;20488;-67
2022/09/08 03:59:08;;;;;;;42.50;38.08;;;17.80;99.90;;;;;;5032453;28;20487;-67
2022/09/08 04:01:34;;;;;;;41.17;36.80;;;18.00;99.90;;;;;;5014526;28;20471;-67
2022/09/08 04:03:59;;;;;;;40.55;35.50;;;17.80;99.90;;;;;;5014448;28;20050;-67
2022/09/08 04:06:25;;;;;;;39.08;35.10;;;17.80;99.90;;;;;;5014212;28;20169;-67
2022/09/08 04:08:51;;;;;;;41.05;36.47;;;17.90;99.90;;;;;;5015657;28;20050;-67
2022/09/08 04:11:16;;;;;;;38.42;34.30;;;17.80;99.90;;;;;;5014394;28;20535;-67
2022/09/08 04:13:42;;;;;;;41.33;36.25;;;17.60;99.90;;;;;;5015392;28;20038;-67
2022/09/08 04:16:08;;;;;;;36.78;32.97;;;17.60;99.90;;;;;;5015585;28;20045;-67
2022/09/08 04:18:34;;;;;;;39.47;34.95;;;17.70;99.90;;;;;;5014152;28;20037;-67
2022/09/08 04:21:01;;;;;;;38.45;34.55;;;17.70;99.90;;;;;;5014028;28;20045;-67
2022/09/08 04:23:27;;;;;;;38.72;34.60;;;17.60;99.90;;;;;;5015518;28;20399;-67
2022/09/08 04:26:03;;;;;;;39.00;33.95;;;17.40;99.90;;;;;;5015451;28;20037;-67
2022/09/08 04:32:35;;;;;;;40.25;36.15;;;17.80;99.90;;;;;;5015107;28;20416;-67
2022/09/08 04:35:00;;;;;;;38.25;34.13;;;17.60;99.90;;;;;;5015150;28;20040;-67
2022/09/08 04:37:57;;;;;;;37.83;33.83;;;17.60;99.90;;;;;;5013786;28;20042;-67
2022/09/08 04:40:23;;;;;;;37.55;33.67;;;17.50;99.90;;;;;;5014992;28;20061;-67
2022/09/08 06:08:32;;;;;;;44.28;37.67;;;17.30;99.90;;;;;;3146654;28;22091;-73
2022/09/08 06:10:58;;;;;;;48.53;41.83;;;17.40;99.90;;;;;;4990274;28;20447;-66
2022/09/08 06:13:24;;;;;;;46.90;39.42;;;17.50;99.90;;;;;;4990660;28;20407;-66
2022/09/08 06:15:50;;;;;;;48.60;40.45;;;17.40;99.90;;;;;;4989507;28;20412;-66
2022/09/08 06:18:19;;;;;;;46.53;40.35;;;17.40;99.90;;;;;;4983932;28;20377;-65
2022/09/08 06:20:46;;;;;;;56.58;42.17;;;17.30;99.90;;;;;;4990222;28;20034;-66
2022/09/08 06:23:12;;;;;;;56.00;44.47;;;17.30;99.90;;;;;;4989761;28;20035;-66
2022/09/08 06:25:43;;;;;;;51.95;42.15;;;17.30;99.90;;;;;;4992679;28;20050;-66
2022/09/08 06:28:38;;;;;;;47.15;39.47;;;17.20;99.90;;;;;;4983153;28;20475;-66
2022/09/08 06:31:08;;;;;;;52.00;42.55;;;17.50;99.90;;;;;;4985371;28;20051;-66
2022/09/08 06:33:40;;;;;;;54.17;44.88;;;17.20;99.90;;;;;;4981392;28;20084;-66
2022/09/08 06:36:27;;;;;;;47.58;42.45;;;17.30;99.90;;;;;;4993471;28;20050;-65
2022/09/08 06:38:57;;;;;;;47.55;40.63;;;17.20;99.90;;;;;;4991199;28;20487;-66
2022/09/08 06:41:32;;;;;;;57.83;46.70;;;17.20;99.90;;;;;;4991912;28;20497;-66
2022/09/08 06:44:03;;;;;;;49.78;43.10;;;17.50;99.90;;;;;;4992072;28;20114;-67
2022/09/08 06:46:33;;;;;;;51.22;42.00;;;17.10;99.90;;;;;;4992277;28;20448;-66
2022/09/08 06:48:59;;;;;;;53.30;42.65;;;17.30;99.90;;;;;;4993433;28;20062;-66
2022/09/08 06:51:37;;;;;;;52.42;43.58;;;17.40;99.90;;;;;;4993044;28;20043;-66
2022/09/08 06:54:08;;;;;;;52.92;41.08;;;17.30;99.90;;;;;;4991469;28;20042;-66
2022/09/08 06:57:01;;;;;;;54.75;42.05;;;17.30;99.90;;;;;;4982520;28;20110;-66
2022/09/08 06:59:53;;;;;;;53.83;42.35;;;17.50;99.90;;;;;;4987507;28;20079;-66
2022/09/08 07:02:47;;;;;;;50.90;43.38;;;17.40;99.90;;;;;;4992581;28;20169;-66
2022/09/08 07:05:33;;;;;;;54.10;42.08;;;17.30;99.90;;;;;;4993320;28;20173;-66
2022/09/08 07:08:04;;;;;;;52.92;42.67;;;17.30;99.90;;;;;;4991022;28;20065;-66
2022/09/08 07:10:42;;;;;;;53.97;42.67;;;17.20;99.90;;;;;;5030053;28;20037;-66
2022/09/08 07:13:28;;;;;;;42.50;35.78;;;17.40;99.90;;;;;;5014470;28;20053;-66
2022/09/08 07:16:18;;;;;;;46.35;37.58;;;17.20;99.90;;;;;;5013379;28;20092;-66
2022/09/08 07:19:00;;;;;;;44.08;36.50;;;17.30;99.90;;;;;;5031808;28;20629;-67
2022/09/08 07:21:43;;;;;;;40.20;32.40;;;17.10;99.90;;;;;;5031410;28;20041;-67
2022/09/08 07:24:13;;;;;;;37.75;30.00;;;17.20;99.90;;;;;;5018911;28;20034;-66
2022/09/08 07:26:47;;;;;;;35.28;28.85;;;17.10;99.90;;;;;;5011760;28;20045;-66
2022/09/08 07:29:24;;;;;;;32.78;27.90;;;17.20;99.90;;;;;;5012845;28;20069;-66
2022/09/08 07:31:52;;;;;;;31.88;27.55;;;17.20;99.90;;;;;;4999707;28;20078;-66
2022/09/08 07:34:22;;;;;;;36.20;29.77;;;17.30;99.90;;;;;;5024537;28;20504;-66
2022/09/08 07:37:01;;;;;;;38.25;31.15;;;17.10;99.90;;;;;;5020681;28;20073;-66
2022/09/08 07:39:55;;;;;;;43.17;34.75;;;17.40;99.90;;;;;;5027430;28;20030;-66
2022/09/08 07:42:21;;;;;;;45.75;36.40;;;17.20;99.90;;;;;;5032642;28;20048;-66
2022/09/08 07:44:53;;;;;;;43.63;36.10;;;17.10;99.90;;;;;;5035706;28;20041;-66
2022/09/08 07:47:25;;;;;;;40.20;33.13;;;17.20;99.90;;;;;;5031804;28;20116;-64
2022/09/08 07:50:05;;;;;;;40.80;34.03;;;17.30;99.90;;;;;;5017403;28;20487;-64
2022/09/08 07:53:12;;;;;;;45.20;34.03;;;17.20;99.90;;;;;;5033790;28;20049;-65
2022/09/08 07:55:43;;;;;;;42.38;32.92;;;17.10;99.90;;;;;;5035251;28;20065;-65
2022/09/08 07:58:17;;;;;;;35.17;30.63;;;17.20;99.90;;;;;;5017974;28;20131;-66
2022/09/08 08:01:01;;;;;;;40.57;31.27;;;17.30;99.90;;;;;;5016561;28;20487;-65
2022/09/08 08:03:44;;;;;;;38.05;29.80;;;17.10;99.90;;;;;;5032411;28;20308;-65
2022/09/08 08:06:22;;;;;;;32.15;26.63;;;17.10;99.90;;;;;;5035319;28;20049;-65
2022/09/08 08:09:14;;;;;;;38.25;27.88;;;17.00;99.90;;;;;;5034449;28;20521;-65
2022/09/08 08:11:47;;;;;;;37.03;27.27;;;17.10;99.90;;;;;;4988891;28;20061;-65
2022/09/08 08:14:31;;;;;;;31.50;25.45;;;17.10;99.90;;;;;;5017477;28;20046;-65
2022/09/08 08:17:20;;;;;;;36.53;24.95;;;17.10;99.90;;;;;;5008761;28;20182;-65
2022/09/08 08:20:04;;;;;;;29.52;24.02;;;16.90;99.90;;;;;;5031454;28;20082;-64
2022/09/08 08:22:55;;;;;;;28.00;22.00;;;17.00;99.90;;;;;;5035051;28;20037;-65
2022/09/08 08:25:29;;;;;;;30.15;21.42;;;17.00;99.90;;;;;;4991377;28;20037;-65
2022/09/08 08:28:31;;;;;;;29.00;22.98;;;17.00;99.90;;;;;;5017423;28;20073;-65
2022/09/08 08:31:18;;;;;;;27.80;21.65;;;17.00;99.90;;;;;;4961826;28;20045;-65
2022/09/08 08:33:48;;;;;;;25.08;18.52;;;16.80;99.90;;;;;;5016293;28;20549;-65
2022/09/08 08:36:18;;;;;;;23.33;19.63;;;17.00;99.90;;;;;;5025008;28;20033;-65
2022/09/08 08:38:46;;;;;;;22.83;18.48;;;17.10;99.90;;;;;;5016921;28;20054;-65
2022/09/08 08:41:48;;;;;;;28.13;20.13;;;16.80;99.90;;;;;;5034516;28;20043;-65
2022/09/08 08:44:54;;;;;;;25.65;17.42;;;17.00;99.90;;;;;;5017306;28;20050;-65
2022/09/08 08:47:27;;;;;;;;;;;17.10;99.90;;;;;;5017176;28;20430;-65
2022/09/08 08:50:26;;;;;;;20.50;14.70;;;17.00;99.90;;;;;;5015447;28;19917;-65
2022/09/08 08:53:28;;;;;;;20.20;14.05;;;17.00;99.90;;;;;;5005964;28;20087;-65
2022/09/08 08:56:19;;;;;;;17.25;12.75;;;16.90;99.90;;;;;;5034606;28;20065;-65
2022/09/08 08:59:38;;;;;;;16.88;13.50;;;16.90;99.90;;;;;;5034351;28;20076;-65
2022/09/08 09:02:18;;;;;;;18.08;11.93;;;17.00;99.90;;;;;;4992679;28;20104;-65
2022/09/08 09:04:52;;;;;;;20.55;12.13;;;17.00;99.90;;;;;;5016259;28;20041;-65
2022/09/08 09:07:55;;;;;;;17.98;11.88;;;17.20;99.90;;;;;;5016322;28;20084;-65
2022/09/08 09:10:49;;;;;;;18.02;11.25;;;17.10;99.90;;;;;;5016245;28;20045;-65
2022/09/08 09:13:26;;;;;;;13.93;10.80;;;17.20;99.90;;;;;;5029422;28;20060;-65
2022/09/08 09:16:10;;;;;;;14.65;10.57;;;17.10;99.90;;;;;;5034117;28;20088;-65
2022/09/08 09:19:01;;;;;;;10.82;8.55;;;17.20;99.90;;;;;;5016159;28;20116;-65
2022/09/08 09:21:50;;;;;;;15.35;8.55;;;17.10;99.90;;;;;;5026463;28;20133;-64
2022/09/08 09:24:37;;;;;;;11.40;7.97;;;16.90;99.90;;;;;;5016062;28;20048;-64
2022/09/08 09:27:20;;;;;;;11.45;7.47;;;17.30;99.90;;;;;;5033755;28;20041;-65
2022/09/08 09:30:14;;;;;;;12.15;7.68;;;17.10;99.90;;;;;;5033357;28;20076;-64
2022/09/08 09:33:07;;;;;;;11.05;7.13;;;17.10;99.90;;;;;;5027837;28;20496;-65
2022/09/08 09:36:17;;;;;;;9.75;6.97;;;17.20;99.90;;;;;;5032897;28;20076;-65
2022/09/08 09:38:52;;;;;;;10.88;6.53;;;17.10;99.90;;;;;;5011534;28;20427;-65
2022/09/08 09:41:51;;;;;;;12.35;7.60;;;16.90;99.90;;;;;;5032941;28;20033;-65
2022/09/08 09:44:38;;;;;;;5.05;4.25;;;16.80;99.90;;;;;;5033348;28;20392;-65
2022/09/08 09:47:15;;;;;;;6.13;3.67;;;16.90;99.90;;;;;;5027527;28;20487;-66
2022/09/08 09:50:01;;;;;;;9.00;4.25;;;16.80;99.90;;;;;;5015710;28;20518;-65
2022/09/08 09:53:06;;;;;;;6.22;3.97;;;16.90;99.90;;;;;;5015632;28;20099;-65
2022/09/08 09:56:04;;;;;;;6.97;4.72;;;16.90;99.90;;;;;;5032983;28;20049;-65
2022/09/08 09:59:08;;;;;;;8.45;5.15;;;16.80;99.90;;;;;;5033309;28;20049;-65
2022/09/08 10:01:43;;;;;;;8.73;4.30;;;16.90;99.90;;;;;;5033481;28;20046;-65
2022/09/08 10:04:36;;;;;;;11.70;4.53;;;17.10;99.90;;;;;;5015079;28;20038;-64
2022/09/08 10:07:23;;;;;;;6.72;3.95;;;17.10;99.90;;;;;;5015002;28;20056;-64
2022/09/08 10:10:09;;;;;;;5.80;3.70;;;16.90;99.90;;;;;;5012116;28;20408;-64
2022/09/08 10:13:21;;;;;;;6.25;3.60;;;17.00;99.90;;;;;;5012086;28;20058;-64
2022/09/08 10:16:11;;;;;;;6.07;3.20;;;17.00;99.90;;;;;;5013281;28;20092;-65
2022/09/08 10:18:51;;;;;;;4.43;3.15;;;17.10;99.90;;;;;;5013552;28;20138;-65
2022/09/08 10:21:49;;;;;;;5.78;2.85;;;17.00;99.90;;;;;;5011542;28;20125;-64
2022/09/08 10:24:33;;;;;;;3.88;2.83;;;17.00;99.90;;;;;;5010877;28;20046;-64
2022/09/08 10:27:19;;;;;;;4.17;2.97;;;17.10;99.90;;;;;;5002013;28;20460;-65
2022/09/08 10:29:56;;;;;;;3.30;2.58;;;17.00;99.90;;;;;;5011942;28;20296;-65
2022/09/08 10:32:59;;;;;;;3.65;2.80;;;17.00;99.90;;;;;;5011840;28;20045;-65
2022/09/08 10:35:45;;;;;;;4.80;2.50;;;17.00;99.90;;;;;;5000724;28;20042;-66
2022/09/08 10:38:23;;;;;;;3.47;2.22;;;16.80;99.90;;;;;;5012972;28;20553;-65
2022/09/08 10:40:54;;;;;;;5.63;1.65;;;17.00;99.90;;;;;;5012915;28;20042;-64
2022/09/08 10:43:20;;;;;;;3.90;1.85;;;17.10;99.90;;;;;;5011444;28;20070;-65
2022/09/08 10:46:17;;;;;;;4.75;1.77;;;16.90;99.90;;;;;;5012156;28;20404;-65
2022/09/08 10:49:13;;;;;;;3.08;1.38;;;16.70;99.90;;;;;;5011223;28;20635;-64
2022/09/08 10:51:38;;;;;;;2.42;1.67;;;16.90;99.90;;;;;;5009973;28;20073;-65
2022/09/08 10:54:38;;;;;;;2.92;1.50;;;16.80;99.90;;;;;;5011589;28;20042;-65
2022/09/08 10:57:34;;;;;;;4.22;2.03;;;17.00;99.90;;;;;;5011806;28;20056;-65
2022/09/08 11:00:12;;;;;;;5.72;2.80;;;16.90;99.90;;;;;;5011742;28;20041;-65
2022/09/08 11:02:56;;;;;;;5.63;3.22;;;17.00;99.90;;;;;;5012879;28;20037;-65
2022/09/08 11:05:42;;;;;;;4.93;3.80;;;16.90;99.90;;;;;;5011547;28;20108;-65
2022/09/08 11:08:26;;;;;;;6.85;4.30;;;16.90;99.90;;;;;;5009459;28;20042;-65
2022/09/08 11:11:00;;;;;;;6.22;3.70;;;17.00;99.90;;;;;;5031878;28;20061;-65
2022/09/08 11:13:37;;;;;;;5.45;3.60;;;16.90;99.90;;;;;;5015194;28;20081;-65
2022/09/08 11:16:20;;;;;;;6.00;4.07;;;16.90;99.90;;;;;;5016617;28;20026;-65
2022/09/08 11:19:23;;;;;;;7.10;4.15;;;16.80;99.90;;;;;;5015218;28;20050;-65
2022/09/08 11:22:28;;;;;;;6.00;4.50;;;16.90;99.90;;;;;;5013756;28;20403;-65
2022/09/08 11:25:30;;;;;;;5.60;4.38;;;16.90;99.90;;;;;;5009565;28;20489;-65
2022/09/08 11:28:14;;;;;;;6.43;4.40;;;16.80;99.90;;;;;;5013191;28;20053;-65
2022/09/08 11:30:52;;;;;;;8.07;5.07;;;17.00;99.90;;;;;;5015852;28;20459;-65
2022/09/08 11:33:45;;;;;;;6.60;5.10;;;16.90;99.90;;;;;;5015173;28;20120;-65
2022/09/08 11:36:42;;;;;;;7.78;4.93;;;16.90;99.90;;;;;;5010566;28;20057;-65
2022/09/08 11:39:23;;;;;;;8.82;5.20;;;17.10;99.90;;;;;;5014110;28;20045;-66
2022/09/08 11:42:08;;;;;;;7.75;5.55;;;17.10;99.90;;;;;;4995638;28;20046;-66
2022/09/08 11:44:51;;;;;;;8.00;5.25;;;17.00;99.90;;;;;;4995206;28;20534;-66
2022/09/08 11:47:34;;;;;;;7.22;5.32;;;17.20;99.90;;;;;;4997519;28;20030;-65
2022/09/08 11:50:32;;;;;;;9.00;6.13;;;17.20;99.90;;;;;;4997897;28;20385;-65
2022/09/08 11:53:28;;;;;;;9.13;5.38;;;17.00;99.90;;;;;;5012938;28;20076;-66
2022/09/08 11:56:20;;;;;;;8.63;5.85;;;17.10;99.90;;;;;;5015688;28;20046;-65
2022/09/08 11:59:13;;;;;;;7.53;5.47;;;17.20;99.90;;;;;;5015371;28;20041;-65
2022/09/08 12:02:20;;;;;;;10.23;6.97;;;17.10;99.90;;;;;;5014305;28;20125;-65
2022/09/08 12:04:59;;;;;;;11.98;6.70;;;17.20;99.90;;;;;;5012561;28;20631;-66
2022/09/08 12:07:53;;;;;;;9.45;6.22;;;17.20;99.90;;;;;;5014172;28;20050;-66
2022/09/08 12:10:42;;;;;;;7.38;6.47;;;17.00;99.90;;;;;;5007023;28;20100;-65
2022/09/08 12:13:38;;;;;;;12.13;7.60;;;17.20;99.90;;;;;;5012744;28;20128;-66
2022/09/08 12:16:22;;;;;;;;;;;17.30;99.90;;;;;;5014690;28;20046;-65
2022/09/08 12:19:07;;;;;;;12.18;7.82;;;17.40;99.90;;;;;;5023399;28;20287;-65
2022/09/08 12:22:08;;;;;;;14.18;9.48;;;17.50;99.90;;;;;;5011683;28;20042;-66
2022/09/08 12:25:03;;;;;;;11.43;8.68;;;17.40;99.90;;;;;;5013981;28;20038;-65
2022/09/08 12:27:59;;;;;;;11.35;8.25;;;17.40;99.90;;;;;;5009388;28;20042;-65
2022/09/08 12:31:02;;;;;;;9.98;8.50;;;17.50;99.90;;;;;;5014701;28;20033;-65
2022/09/08 12:34:00;;;;;;;12.80;9.10;;;17.60;99.90;;;;;;4991210;28;20563;-65
2022/09/08 12:36:37;;;;;;;14.20;10.18;;;17.50;99.90;;;;;;4976391;28;20142;-66
2022/09/08 12:39:14;;;;;;;14.85;9.68;;;17.60;99.90;;;;;;5005112;28;20531;-65
2022/09/08 12:42:05;;;;;;;13.52;10.30;;;17.50;99.90;;;;;;5013079;28;20092;-66
2022/09/08 12:44:31;;;;;;;14.18;10.65;;;17.60;99.90;;;;;;5013199;28;20049;-66
2022/09/08 12:47:09;;;;;;;13.85;11.15;;;17.60;99.90;;;;;;5014383;28;20496;-65
2022/09/08 12:49:55;;;;;;;15.88;10.60;;;17.70;99.90;;;;;;5013854;28;20053;-65
2022/09/08 12:53:01;;;;;;;17.55;10.75;;;17.60;99.90;;;;;;5012116;28;20038;-65
2022/09/08 12:55:40;;;;;;;14.32;11.70;;;17.70;99.90;;;;;;4998182;28;20045;-65
2022/09/08 12:58:06;;;;;;;18.17;11.00;;;17.90;99.90;;;;;;5014439;28;20041;-65
2022/09/08 13:00:40;;;;;;;13.65;11.35;;;17.90;99.90;;;;;;5012466;28;20408;-65
2022/09/08 13:03:12;;;;;;;17.38;11.23;;;18.00;99.90;;;;;;5011864;28;20061;-64
2022/09/08 13:06:05;;;;;;;15.38;12.43;;;18.00;99.90;;;;;;5012247;28;20054;-66
2022/09/08 13:08:52;;;;;;;18.13;12.85;;;18.10;99.90;;;;;;5012469;28;20041;-65
2022/09/08 13:11:27;;;;;;;18.02;13.68;;;18.10;99.90;;;;;;4999433;28;20439;-66
2022/09/08 13:13:59;;;;;;;17.77;12.75;;;18.00;99.90;;;;;;5016833;28;20041;-63
2022/09/08 13:17:08;;;;;;;15.82;13.02;;;18.20;99.90;;;;;;5025798;28;20515;-66
2022/09/08 13:20:07;;;;;;;19.38;14.23;;;18.10;99.90;;;;;;5013398;28;20080;-65
2022/09/08 13:23:05;;;;;;;20.65;13.80;;;18.20;99.90;;;;;;4997745;28;20034;-65
2022/09/08 13:25:52;;;;;;;16.90;13.32;;;17.90;99.90;;;;;;5016128;28;20045;-65
2022/09/08 13:28:35;;;;;;;16.92;13.70;;;18.00;99.90;;;;;;5015769;28;20044;-66
2022/09/08 13:31:32;;;;;;;20.05;14.27;;;18.10;99.90;;;;;;5010085;28;20057;-64
2022/09/08 13:34:19;;;;;;;18.42;13.93;;;18.10;99.90;;;;;;4994051;28;20418;-65
2022/09/08 13:37:24;;;;;;;17.08;13.55;;;18.10;99.90;;;;;;5031462;28;20037;-66
2022/09/08 13:40:02;;;;;;;19.40;13.98;;;17.80;99.90;;;;;;5033157;28;20036;-64
2022/09/08 13:43:00;;;;;;;22.73;15.38;;;18.00;99.90;;;;;;5032796;28;20438;-64
2022/09/08 13:45:35;;;;;;;26.42;15.10;;;18.10;99.90;;;;;;5028121;28;20049;-65
2022/09/08 13:48:06;;;;;;;18.67;15.40;;;18.00;99.90;;;;;;5015732;28;20071;-65
2022/09/08 13:50:54;;;;;;;21.45;15.80;;;17.80;99.90;;;;;;5020292;28;20064;-65
2022/09/08 13:53:32;;;;;;;20.77;15.45;;;18.00;99.90;;;;;;5015613;28;20377;-65
2022/09/08 13:56:16;;;;;;;22.23;15.63;;;17.90;99.90;;;;;;5014927;28;20095;-65
2022/09/08 13:58:50;;;;;;;20.80;15.85;;;17.90;99.90;;;;;;5031994;28;20037;-65
2022/09/08 14:01:27;;;;;;;22.42;16.40;;;17.90;99.90;;;;;;4994484;28;20128;-65
2022/09/08 14:04:13;;;;;;;20.02;16.15;;;17.80;99.90;;;;;;4998863;28;20460;-65
2022/09/08 14:07:03;;;;;;;26.10;16.70;;;17.90;99.90;;;;;;5022885;28;20076;-65
2022/09/08 14:09:31;;;;;;;20.83;16.15;;;17.90;99.90;;;;;;5018789;28;20056;-65
2022/09/08 14:12:22;;;;;;;22.23;15.98;;;18.00;99.90;;;;;;5032912;28;20049;-65
2022/09/08 14:15:18;;;;;;;26.30;18.08;;;18.00;99.90;;;;;;5014749;28;20472;-65
2022/09/08 14:17:44;;;;;;;18.92;14.43;;;17.90;99.90;;;;;;5030622;28;20376;-65
2022/09/08 14:20:22;;;;;;;20.27;12.93;;;18.20;99.90;;;;;;5015061;28;20120;-65
2022/09/08 14:23:27;;;;;;;19.88;14.10;;;18.10;99.90;;;;;;5014729;28;20026;-66
2022/09/08 14:26:13;;;;;;;17.23;12.80;;;18.20;99.90;;;;;;5013767;28;20088;-66
2022/09/08 14:29:08;;;;;;;21.30;12.90;;;18.30;99.90;;;;;;5010759;28;20037;-66
2022/09/08 14:31:56;;;;;;;19.80;14.95;;;18.20;99.90;;;;;;5020780;28;20049;-66
2022/09/08 14:34:44;;;;;;;16.73;13.52;;;18.10;99.90;;;;;;5012998;28;20554;-68
2022/09/08 14:37:12;;;;;;;18.00;14.15;;;18.10;99.90;;;;;;5032567;28;20040;-68
2022/09/08 14:39:54;;;;;;;16.15;13.45;;;19.10;99.90;;;;;;5032460;28;20037;-68
2022/09/08 14:42:36;;;;;;;20.38;13.27;;;18.10;99.90;;;;;;5027142;28;20046;-68
2022/09/08 14:45:20;;;;;;;17.15;13.90;;;18.20;99.90;;;;;;5017878;28;20046;-67
2022/09/08 14:48:01;;;;;;;19.63;15.17;;;18.20;99.90;;;;;;5015270;28;20053;-68
2022/09/08 14:50:41;;;;;;;20.90;15.43;;;18.30;99.90;;;;;;5028375;28;20060;-68
2022/09/08 14:53:35;;;;;;;21.83;16.27;;;18.30;99.90;;;;;;5014580;28;20080;-68
2022/09/08 14:56:10;;;;;;;17.10;14.05;;;18.20;99.90;;;;;;5027065;28;20128;-67
2022/09/08 14:59:15;;;;;;;19.90;14.88;;;18.10;99.90;;;;;;5032253;28;20045;-68
2022/09/08 15:01:47;;;;;;;20.13;15.85;;;18.10;99.90;;;;;;5005140;28;20048;-68
2022/09/08 15:04:27;;;;;;;17.10;14.45;;;18.00;99.90;;;;;;5032242;28;20036;-67